Time;durP1;ratioP1;P1;durP2;ratioP2;P2;SDS_P1;SDS_P2;PMS_P1;PMS_P2;Temp;Humidity;BMP_temperature;BMP_pressure;BME280_temperature;BME280_humidity;BME280_pressure;Samples;Min_cycle;Max_cycle;Signal;HPM_P1;HPM_P2
2022/04/11 00:02:13;;;;;;;9.27;4.15;;;4.70;99.90;;;;;;4998542;28;20050;-46
2022/04/11 00:04:39;;;;;;;10.55;3.80;;;4.70;99.90;;;;;;5001709;28;20488;-50
2022/04/11 00:07:05;;;;;;;10.82;4.00;;;4.70;99.90;;;;;;4996926;28;20151;-49
2022/04/11 00:09:30;;;;;;;9.55;4.03;;;4.70;99.90;;;;;;4996835;28;20049;-45
2022/04/11 00:11:59;;;;;;;10.75;4.10;;;4.70;99.90;;;;;;5007879;28;20080;-46
2022/04/11 00:14:25;;;;;;;9.00;4.00;;;4.70;99.90;;;;;;5016529;28;20038;-48
2022/04/11 00:16:50;;;;;;;9.48;3.60;;;4.70;99.90;;;;;;5015975;28;20469;-47
2022/04/11 00:19:16;;;;;;;7.97;3.53;;;4.70;99.90;;;;;;4993812;28;20076;-47
2022/04/11 00:21:42;;;;;;;8.25;3.25;;;4.70;99.90;;;;;;5003591;28;20037;-49
2022/04/11 00:24:08;;;;;;;8.13;3.20;;;4.70;99.90;;;;;;4997060;28;20553;-48
2022/04/11 00:26:33;;;;;;;6.50;3.15;;;4.70;99.90;;;;;;5000609;28;20045;-44
2022/04/11 00:28:59;;;;;;;7.93;2.90;;;4.60;99.90;;;;;;5014250;28;20083;-48
2022/04/11 00:31:25;;;;;;;8.23;3.10;;;4.70;99.90;;;;;;4983128;28;20042;-46
2022/04/11 00:33:51;;;;;;;8.95;3.08;;;4.60;99.90;;;;;;5003676;28;20169;-46
2022/04/11 00:36:16;;;;;;;8.43;3.33;;;4.60;99.90;;;;;;5016019;28;20038;-50
2022/04/11 00:38:42;;;;;;;7.75;3.10;;;4.50;99.90;;;;;;5016071;28;20061;-48
2022/04/11 00:41:08;;;;;;;7.90;3.00;;;4.50;99.90;;;;;;5006471;28;20057;-46
2022/04/11 00:43:38;;;;;;;8.98;2.78;;;4.50;99.90;;;;;;4996656;28;20045;-47
2022/04/11 00:46:06;;;;;;;6.70;3.00;;;4.40;99.90;;;;;;4996207;28;20473;-46
2022/04/11 00:48:32;;;;;;;11.25;3.00;;;4.40;99.90;;;;;;4988138;28;20086;-49
2022/04/11 00:51:01;;;;;;;12.30;3.20;;;4.40;99.90;;;;;;4991056;28;20117;-51
2022/04/11 00:53:28;;;;;;;9.10;3.30;;;4.30;99.90;;;;;;4993464;28;20038;-48
2022/04/11 00:55:55;;;;;;;6.15;2.92;;;4.30;99.90;;;;;;4976079;28;20453;-46
2022/04/11 00:58:22;;;;;;;7.15;2.90;;;4.20;99.90;;;;;;4993474;28;20077;-49
2022/04/11 01:00:47;;;;;;;7.13;2.80;;;4.10;99.90;;;;;;4993322;28;20042;-48
2022/04/11 01:03:13;;;;;;;9.35;3.08;;;4.10;99.90;;;;;;4991833;28;20437;-47
2022/04/11 01:05:40;;;;;;;8.07;2.78;;;3.80;99.90;;;;;;4991498;28;20367;-46
2022/04/11 01:08:08;;;;;;;8.15;3.30;;;3.80;99.90;;;;;;4993366;28;20054;-47
2022/04/11 01:10:34;;;;;;;7.40;2.83;;;3.70;99.90;;;;;;4993148;28;20042;-47
2022/04/11 01:13:01;;;;;;;7.95;2.70;;;3.90;99.90;;;;;;4993290;28;20041;-46
2022/04/11 01:15:27;;;;;;;6.82;2.88;;;3.70;99.90;;;;;;4992854;28;20109;-46
2022/04/11 01:17:53;;;;;;;6.75;2.70;;;3.70;99.90;;;;;;4992916;28;20034;-47
2022/04/11 01:20:22;;;;;;;8.13;3.00;;;3.60;99.90;;;;;;4993066;28;20531;-46
2022/04/11 01:22:48;;;;;;;6.68;2.63;;;3.70;99.90;;;;;;4993521;28;20049;-46
2022/04/11 01:25:15;;;;;;;8.70;2.78;;;3.60;99.90;;;;;;4992948;28;20031;-46
2022/04/11 01:27:42;;;;;;;6.82;2.70;;;3.60;99.90;;;;;;4992867;28;20034;-47
2022/04/11 01:30:11;;;;;;;5.97;2.80;;;3.70;99.90;;;;;;4992602;28;20092;-49
2022/04/11 01:32:38;;;;;;;8.95;3.05;;;3.70;99.90;;;;;;4992801;28;20038;-47
2022/04/11 01:35:04;;;;;;;5.72;2.60;;;3.70;99.90;;;;;;4992753;28;20116;-50
2022/04/11 01:37:30;;;;;;;7.30;2.92;;;3.70;99.90;;;;;;4992867;28;20050;-49
2022/04/11 01:39:56;;;;;;;6.03;2.33;;;3.60;99.90;;;;;;4991178;28;20038;-48
2022/04/11 01:42:22;;;;;;;6.90;2.63;;;3.60;99.90;;;;;;4958963;28;20478;-47
2022/04/11 01:44:47;;;;;;;7.32;3.15;;;3.50;99.90;;;;;;4992319;28;20045;-46
2022/04/11 01:47:13;;;;;;;8.80;3.22;;;3.50;99.90;;;;;;4991792;28;20038;-45
2022/04/11 01:49:39;;;;;;;8.35;3.05;;;3.50;99.90;;;;;;5003393;28;20054;-47
2022/04/11 01:52:05;;;;;;;8.18;2.92;;;3.60;99.90;;;;;;5011419;28;20042;-47
2022/04/11 01:54:31;;;;;;;7.65;3.10;;;3.60;99.90;;;;;;5011903;28;20038;-50
2022/04/11 01:56:57;;;;;;;7.57;3.40;;;3.50;99.90;;;;;;5011874;28;20038;-44
2022/04/11 01:59:22;;;;;;;8.75;2.67;;;3.50;99.90;;;;;;5011661;28;20029;-49
2022/04/11 02:01:48;;;;;;;6.72;3.10;;;3.60;99.90;;;;;;5011628;28;20171;-47
2022/04/11 02:04:14;;;;;;;8.52;3.03;;;3.50;99.90;;;;;;5011786;28;20045;-51
2022/04/11 02:06:39;;;;;;;6.15;2.60;;;3.60;99.90;;;;;;5011749;28;20214;-47
2022/04/11 02:09:06;;;;;;;9.40;3.20;;;3.60;99.90;;;;;;5011703;28;20046;-47
2022/04/11 02:11:32;;;;;;;6.60;2.55;;;3.60;99.90;;;;;;5011285;28;20057;-49
2022/04/11 02:13:58;;;;;;;7.22;2.40;;;3.60;99.90;;;;;;5009850;28;20037;-46
2022/04/11 02:16:24;;;;;;;5.07;2.58;;;3.50;99.90;;;;;;5011057;28;20034;-46
2022/04/11 02:18:50;;;;;;;5.15;2.33;;;3.50;99.90;;;;;;5010966;28;20049;-50
2022/04/11 02:21:16;;;;;;;4.50;2.42;;;3.50;99.90;;;;;;5011808;28;20205;-48
2022/04/11 02:23:41;;;;;;;6.00;2.65;;;3.50;99.90;;;;;;5011292;28;20038;-49
2022/04/11 02:26:08;;;;;;;6.03;2.60;;;3.60;99.90;;;;;;5011375;28;20045;-48
2022/04/11 02:28:34;;;;;;;5.68;2.50;;;3.40;99.90;;;;;;5011507;28;20061;-45
2022/04/11 02:31:00;;;;;;;8.55;2.85;;;3.30;99.90;;;;;;5011203;28;20064;-48
2022/04/11 02:33:26;;;;;;;5.30;2.30;;;3.30;99.90;;;;;;5009495;28;20037;-47
2022/04/11 02:35:52;;;;;;;6.55;2.20;;;3.50;99.90;;;;;;5010920;28;20401;-47
2022/04/11 02:38:17;;;;;;;6.60;3.17;;;3.40;99.90;;;;;;5011263;28;20137;-49
2022/04/11 02:40:43;;;;;;;5.78;2.58;;;3.40;99.90;;;;;;5010853;28;20173;-47
2022/04/11 02:43:09;;;;;;;7.43;2.53;;;3.40;99.90;;;;;;5011118;28;20037;-48
2022/04/11 02:45:34;;;;;;;6.93;3.10;;;3.30;99.90;;;;;;5010592;28;20053;-51
2022/04/11 02:48:00;;;;;;;5.70;2.25;;;3.30;99.90;;;;;;5011201;28;20044;-48
2022/04/11 02:50:26;;;;;;;6.53;2.50;;;3.30;99.90;;;;;;5010132;28;20054;-46
2022/04/11 02:52:52;;;;;;;5.55;2.25;;;3.10;99.90;;;;;;5010862;28;20050;-48
2022/04/11 02:55:17;;;;;;;8.48;2.83;;;3.10;99.90;;;;;;5010880;28;20042;-44
2022/04/11 02:57:43;;;;;;;6.15;2.50;;;3.10;99.90;;;;;;5010799;28;20400;-45
2022/04/11 03:00:12;;;;;;;6.82;2.20;;;3.10;99.90;;;;;;5010459;28;20385;-48
2022/04/11 03:02:38;;;;;;;5.72;2.65;;;3.20;99.90;;;;;;4992980;28;20473;-47
2022/04/11 03:05:05;;;;;;;6.20;2.45;;;3.10;99.90;;;;;;5010334;28;20053;-48
2022/04/11 03:07:30;;;;;;;5.63;2.83;;;3.00;99.90;;;;;;5010597;28;20042;-47
2022/04/11 03:09:56;;;;;;;7.50;2.67;;;3.00;99.90;;;;;;5010089;28;20343;-45
2022/04/11 03:12:22;;;;;;;9.20;2.80;;;3.00;99.90;;;;;;5010206;28;20093;-49
2022/04/11 03:14:51;;;;;;;5.97;2.72;;;2.90;99.90;;;;;;5010696;28;20034;-49
2022/04/11 03:17:17;;;;;;;6.57;2.72;;;3.10;99.90;;;;;;5010361;28;20136;-49
2022/04/11 03:19:44;;;;;;;6.35;2.53;;;3.00;99.90;;;;;;5007762;28;20034;-49
2022/04/11 03:22:11;;;;;;;5.82;2.45;;;2.80;99.90;;;;;;5010380;28;20370;-47
2022/04/11 03:24:37;;;;;;;9.65;2.75;;;2.90;99.90;;;;;;5010429;28;20042;-49
2022/04/11 03:27:03;;;;;;;11.32;2.78;;;2.80;99.90;;;;;;4992937;28;20362;-49
2022/04/11 03:29:29;;;;;;;10.13;2.92;;;2.70;99.90;;;;;;5010345;28;20044;-49
2022/04/11 03:31:54;;;;;;;5.85;2.95;;;2.70;99.90;;;;;;5010032;28;20088;-47
2022/04/11 03:34:20;;;;;;;7.65;2.88;;;2.70;99.90;;;;;;5010197;28;20113;-46
2022/04/11 03:36:46;;;;;;;6.63;2.80;;;2.60;99.90;;;;;;5009743;28;20037;-48
2022/04/11 03:39:12;;;;;;;6.03;2.83;;;2.70;99.90;;;;;;5010383;28;20034;-48
2022/04/11 03:41:37;;;;;;;5.47;2.67;;;2.70;99.90;;;;;;5010317;28;20061;-48
2022/04/11 03:44:03;;;;;;;11.45;3.30;;;2.70;99.90;;;;;;5009857;28;20100;-45
2022/04/11 03:46:29;;;;;;;5.65;3.00;;;2.80;99.90;;;;;;5009466;28;20046;-49
2022/04/11 03:48:55;;;;;;;5.65;2.90;;;2.90;99.90;;;;;;5004367;28;20379;-46
2022/04/11 03:51:22;;;;;;;9.02;3.22;;;2.80;99.90;;;;;;4990327;28;20457;-48
2022/04/11 03:53:48;;;;;;;6.57;3.33;;;2.90;99.90;;;;;;4990406;28;20122;-47
2022/04/11 03:56:17;;;;;;;9.50;3.38;;;2.90;99.90;;;;;;4990545;28;20049;-48
2022/04/11 03:58:46;;;;;;;9.00;2.80;;;2.90;99.90;;;;;;4990082;28;20385;-48
2022/04/11 04:01:12;;;;;;;6.50;3.45;;;2.80;99.90;;;;;;4990470;28;20038;-47
2022/04/11 04:03:39;;;;;;;7.70;3.30;;;2.90;99.90;;;;;;4989052;28;20497;-49
2022/04/11 04:06:04;;;;;;;10.93;3.92;;;2.90;99.90;;;;;;4972981;28;20046;-47
2022/04/11 04:08:30;;;;;;;8.65;3.60;;;3.00;99.90;;;;;;4990461;28;20126;-49
2022/04/11 04:10:56;;;;;;;7.50;3.85;;;3.10;99.90;;;;;;4990487;28;20038;-50
2022/04/11 04:13:21;;;;;;;7.80;3.75;;;3.00;99.90;;;;;;4989801;28;20125;-49
2022/04/11 04:15:47;;;;;;;9.88;3.90;;;3.10;99.90;;;;;;4989084;28;20043;-48
2022/04/11 04:18:13;;;;;;;8.70;3.90;;;3.20;99.90;;;;;;4990074;28;20050;-49
2022/04/11 04:20:39;;;;;;;7.55;3.75;;;3.20;99.90;;;;;;4990266;28;20093;-47
2022/04/11 04:23:06;;;;;;;9.57;4.07;;;3.30;99.90;;;;;;4992122;28;20038;-46
2022/04/11 04:25:35;;;;;;;9.18;4.20;;;3.30;99.90;;;;;;4994243;28;20085;-47
2022/04/11 04:28:02;;;;;;;7.60;4.03;;;3.30;99.90;;;;;;4993926;28;20093;-47
2022/04/11 04:30:29;;;;;;;8.38;3.80;;;3.30;99.90;;;;;;4994334;28;20042;-49
2022/04/11 04:32:56;;;;;;;8.77;4.35;;;3.40;99.90;;;;;;4993740;28;20077;-46
2022/04/11 04:35:21;;;;;;;13.27;4.60;;;3.30;99.90;;;;;;4993714;28;20060;-46
2022/04/11 04:37:48;;;;;;;11.18;4.40;;;3.30;99.90;;;;;;4994001;28;20035;-47
2022/04/11 04:40:13;;;;;;;12.82;4.55;;;3.30;99.90;;;;;;4993675;28;20055;-50
2022/04/11 04:42:39;;;;;;;9.10;4.35;;;3.40;99.90;;;;;;4993794;28;20478;-47
2022/04/11 04:45:06;;;;;;;10.93;4.47;;;3.40;99.90;;;;;;4993782;28;20037;-49
2022/04/11 04:47:32;;;;;;;9.50;4.60;;;3.40;99.90;;;;;;4993255;28;20057;-47
2022/04/11 04:49:57;;;;;;;8.27;4.22;;;3.40;99.90;;;;;;5006146;28;20410;-47
2022/04/11 04:52:23;;;;;;;12.52;4.78;;;3.40;99.90;;;;;;5013036;28;20046;-48
2022/04/11 04:54:49;;;;;;;8.38;4.35;;;3.40;99.90;;;;;;5012889;28;20132;-46
2022/04/11 04:57:14;;;;;;;11.25;4.35;;;3.50;99.90;;;;;;5012992;28;20046;-47
2022/04/11 04:59:41;;;;;;;10.48;4.55;;;3.50;99.90;;;;;;4995066;28;20046;-47
2022/04/11 05:02:06;;;;;;;12.65;4.82;;;3.50;99.90;;;;;;5012627;28;20045;-51
2022/04/11 05:04:32;;;;;;;8.95;4.57;;;3.50;99.90;;;;;;5012655;28;20034;-47
2022/04/11 05:06:58;;;;;;;11.23;4.47;;;3.50;99.90;;;;;;5013040;28;20056;-48
2022/04/11 05:09:23;;;;;;;10.45;4.72;;;3.50;99.90;;;;;;5012738;28;20041;-46
2022/04/11 05:11:49;;;;;;;11.05;4.75;;;3.60;99.90;;;;;;5012838;28;20057;-47
2022/04/11 05:14:15;;;;;;;7.38;4.22;;;3.60;99.90;;;;;;5010679;28;20128;-47
2022/04/11 05:16:40;;;;;;;10.73;4.70;;;3.60;99.90;;;;;;5012393;28;20740;-48
2022/04/11 05:19:06;;;;;;;9.13;4.43;;;3.70;99.90;;;;;;5012629;28;20445;-48
2022/04/11 05:21:32;;;;;;;13.55;4.13;;;3.70;99.90;;;;;;5011711;28;20172;-49
2022/04/11 05:23:57;;;;;;;12.13;5.00;;;3.70;99.90;;;;;;5011874;28;20096;-50
2022/04/11 05:26:23;;;;;;;13.63;5.35;;;3.70;99.90;;;;;;5012569;28;20072;-44
2022/04/11 05:28:49;;;;;;;9.55;5.53;;;3.70;99.90;;;;;;5012189;28;20495;-47
2022/04/11 05:31:16;;;;;;;11.30;5.38;;;3.70;99.90;;;;;;5012204;28;20113;-46
2022/04/11 05:33:42;;;;;;;8.35;4.65;;;3.70;99.90;;;;;;5009560;28;20121;-48
2022/04/11 05:36:08;;;;;;;10.32;5.10;;;3.80;99.90;;;;;;4994385;28;20120;-45
2022/04/11 05:38:33;;;;;;;10.68;4.88;;;3.70;99.90;;;;;;5011933;28;20503;-48
2022/04/11 05:40:59;;;;;;;10.68;5.28;;;3.80;99.90;;;;;;5011875;28;20037;-49
2022/04/11 05:43:25;;;;;;;8.90;4.50;;;3.80;99.90;;;;;;5012256;28;20049;-49
2022/04/11 05:45:50;;;;;;;9.40;4.68;;;3.80;99.90;;;;;;5011241;28;20524;-45
2022/04/11 05:48:16;;;;;;;11.98;4.70;;;3.80;99.90;;;;;;5012071;28;20049;-45
2022/04/11 05:50:42;;;;;;;13.05;4.75;;;3.90;99.90;;;;;;5011626;28;20124;-44
2022/04/11 05:53:07;;;;;;;11.05;5.40;;;3.80;99.90;;;;;;5012015;28;20057;-45
2022/04/11 05:55:33;;;;;;;9.63;5.10;;;3.80;99.90;;;;;;5011814;28;20069;-48
2022/04/11 05:57:59;;;;;;;8.48;4.70;;;3.90;99.90;;;;;;5011569;28;20385;-44
2022/04/11 06:00:25;;;;;;;9.38;4.20;;;3.90;99.90;;;;;;4993438;28;20041;-43
2022/04/11 06:02:51;;;;;;;8.57;4.60;;;4.50;99.90;;;;;;5011682;28;20052;-45
2022/04/11 06:05:16;;;;;;;11.70;4.97;;;4.00;99.90;;;;;;5011507;28;20034;-46
2022/04/11 06:07:42;;;;;;;9.68;4.72;;;4.10;99.90;;;;;;5011789;28;20046;-46
2022/04/11 06:10:09;;;;;;;12.10;4.47;;;4.10;99.90;;;;;;5011782;28;20088;-48
2022/04/11 06:12:35;;;;;;;10.40;4.78;;;4.10;99.90;;;;;;5011238;28;20045;-46
2022/04/11 06:15:00;;;;;;;10.90;5.00;;;4.20;99.90;;;;;;5011666;28;20034;-46
2022/04/11 06:17:26;;;;;;;10.35;4.57;;;4.20;99.90;;;;;;5011044;28;20045;-48
2022/04/11 06:19:57;;;;;;;9.82;4.82;;;4.30;99.90;;;;;;5010099;28;20160;-49
2022/04/11 06:22:24;;;;;;;8.82;4.60;;;4.30;99.90;;;;;;5011212;28;20048;-46
2022/04/11 06:24:50;;;;;;;11.18;4.80;;;4.30;99.90;;;;;;5011096;28;20037;-48
2022/04/11 06:27:17;;;;;;;9.43;4.55;;;4.40;99.90;;;;;;5011130;28;20511;-44
2022/04/11 06:29:43;;;;;;;10.75;4.60;;;4.40;99.90;;;;;;5011039;28;20049;-45
2022/04/11 06:32:09;;;;;;;9.20;4.63;;;4.50;99.90;;;;;;5008456;28;20060;-47
2022/04/11 06:34:36;;;;;;;8.60;4.80;;;4.60;99.90;;;;;;5010247;28;20164;-44
2022/04/11 06:37:03;;;;;;;11.35;4.97;;;4.60;99.90;;;;;;5001662;28;20030;-44
2022/04/11 06:39:29;;;;;;;9.32;4.78;;;4.70;99.90;;;;;;4984588;28;20042;-46
2022/04/11 06:41:55;;;;;;;9.80;4.72;;;4.80;99.90;;;;;;4999920;28;20046;-44
2022/04/11 06:44:21;;;;;;;7.50;4.43;;;4.80;99.90;;;;;;5002118;28;20048;-46
2022/04/11 06:46:47;;;;;;;9.15;4.68;;;4.80;99.90;;;;;;4999775;28;20034;-45
2022/04/11 06:49:12;;;;;;;10.25;5.20;;;4.90;99.90;;;;;;5000507;28;20116;-45
2022/04/11 06:51:38;;;;;;;9.98;4.80;;;4.90;99.90;;;;;;5000202;28;20121;-45
2022/04/11 06:54:04;;;;;;;9.93;5.45;;;5.00;99.90;;;;;;5001183;28;20057;-47
2022/04/11 06:56:30;;;;;;;11.48;5.72;;;5.10;99.90;;;;;;5002388;28;20401;-47
2022/04/11 06:58:56;;;;;;;11.95;5.18;;;5.20;99.90;;;;;;5000424;28;20026;-47
2022/04/11 07:01:21;;;;;;;8.90;4.95;;;5.30;99.90;;;;;;5001561;28;20037;-47
2022/04/11 07:03:47;;;;;;;13.70;5.47;;;5.40;99.90;;;;;;5001620;28;20034;-45
2022/04/11 07:06:13;;;;;;;8.45;5.15;;;5.50;99.90;;;;;;5002567;28;20165;-47
2022/04/11 07:08:39;;;;;;;10.75;4.95;;;5.50;99.90;;;;;;5001542;28;20525;-45
2022/04/11 07:11:06;;;;;;;10.32;4.97;;;5.70;99.90;;;;;;5000601;28;20494;-44
2022/04/11 07:13:33;;;;;;;11.48;5.10;;;5.80;99.90;;;;;;5000072;28;20042;-44
2022/04/11 07:15:59;;;;;;;9.18;5.38;;;5.90;99.90;;;;;;5001364;28;20068;-46
2022/04/11 07:18:27;;;;;;;10.95;5.53;;;5.90;99.90;;;;;;4999956;28;20061;-46
2022/04/11 07:20:56;;;;;;;12.13;5.65;;;6.00;99.90;;;;;;5002617;28;20729;-47
2022/04/11 07:23:21;;;;;;;8.63;4.95;;;6.10;99.90;;;;;;5001773;28;20080;-45
2022/04/11 07:25:47;;;;;;;9.75;5.65;;;6.10;99.90;;;;;;5002033;28;20073;-48
2022/04/11 07:28:13;;;;;;;9.95;5.78;;;6.20;99.90;;;;;;5001910;28;20111;-47
2022/04/11 07:30:39;;;;;;;10.38;5.68;;;6.30;99.90;;;;;;5002698;28;20025;-47
2022/04/11 07:33:06;;;;;;;11.98;5.55;;;6.40;99.90;;;;;;4999456;28;20050;-49
2022/04/11 07:35:31;;;;;;;13.07;5.88;;;6.60;99.90;;;;;;5000289;28;20047;-45
2022/04/11 07:37:57;;;;;;;9.35;5.90;;;6.80;99.90;;;;;;5002154;28;20050;-49
2022/04/11 07:40:27;;;;;;;10.02;5.85;;;6.90;99.90;;;;;;5001698;28;20469;-45
2022/04/11 07:42:53;;;;;;;10.00;6.00;;;7.10;99.90;;;;;;5003019;28;20056;-47
2022/04/11 07:45:20;;;;;;;10.15;6.03;;;7.20;99.90;;;;;;5002126;28;20038;-44
2022/04/11 07:47:45;;;;;;;10.07;5.55;;;7.30;99.90;;;;;;5000456;28;20038;-49
2022/04/11 07:50:11;;;;;;;11.98;5.85;;;7.40;99.90;;;;;;4986669;28;20111;-46
2022/04/11 07:52:42;;;;;;;12.20;6.15;;;7.40;99.90;;;;;;4979161;28;20121;-45
2022/04/11 07:55:10;;;;;;;16.73;5.75;;;7.70;99.90;;;;;;4977185;28;20109;-49
2022/04/11 07:57:37;;;;;;;12.73;6.53;;;7.60;99.90;;;;;;4980211;28;20038;-47
2022/04/11 08:00:06;;;;;;;9.75;5.75;;;7.70;99.90;;;;;;4973395;28;20045;-44
2022/04/11 08:02:32;;;;;;;10.93;5.82;;;7.70;99.90;;;;;;4962803;28;20042;-47
2022/04/11 08:05:05;;;;;;;10.73;5.80;;;7.80;99.90;;;;;;4980143;28;20038;-47
2022/04/11 08:07:32;;;;;;;9.70;6.00;;;7.90;99.90;;;;;;4982100;28;20040;-48
2022/04/11 08:10:02;;;;;;;10.25;5.47;;;7.90;99.90;;;;;;4982762;28;20042;-46
2022/04/11 08:12:27;;;;;;;10.40;6.10;;;8.00;99.90;;;;;;4980396;28;20138;-46
2022/04/11 08:14:53;;;;;;;9.98;5.95;;;8.10;99.90;;;;;;4972767;28;20039;-48
2022/04/11 08:17:19;;;;;;;13.35;6.22;;;8.20;99.90;;;;;;4982124;28;20113;-47
2022/04/11 08:19:45;;;;;;;10.35;5.88;;;8.30;99.90;;;;;;4982466;28;20045;-46
2022/04/11 08:22:10;;;;;;;9.30;6.18;;;8.40;99.90;;;;;;4984142;28;20042;-48
2022/04/11 08:24:36;;;;;;;8.80;5.95;;;8.50;99.90;;;;;;4980099;28;20038;-48
2022/04/11 08:27:02;;;;;;;11.13;5.80;;;8.50;99.90;;;;;;4983146;28;20478;-47
2022/04/11 08:29:27;;;;;;;10.25;6.57;;;8.60;99.90;;;;;;4982169;28;20034;-47
2022/04/11 08:31:53;;;;;;;9.23;6.25;;;8.80;99.90;;;;;;4981461;28;20054;-47
2022/04/11 08:34:19;;;;;;;10.55;6.22;;;8.90;99.90;;;;;;4983257;28;20147;-47
2022/04/11 08:36:45;;;;;;;10.52;6.05;;;9.00;99.90;;;;;;4981992;28;20034;-48
2022/04/11 08:39:11;;;;;;;9.82;6.07;;;9.10;99.90;;;;;;4983047;28;20038;-47
2022/04/11 08:41:37;;;;;;;10.80;6.40;;;9.20;99.90;;;;;;4983045;28;20073;-46
2022/04/11 08:44:05;;;;;;;9.40;6.13;;;9.30;99.90;;;;;;4980994;28;20408;-46
2022/04/11 08:46:32;;;;;;;11.43;6.30;;;9.30;99.90;;;;;;4980891;28;20178;-47
2022/04/11 08:49:03;;;;;;;8.93;5.72;;;9.50;99.90;;;;;;4982461;28;20112;-49
2022/04/11 08:51:33;;;;;;;12.40;6.55;;;9.50;99.90;;;;;;4982474;28;20187;-46
2022/04/11 08:54:03;;;;;;;9.00;5.75;;;9.70;99.90;;;;;;4981576;28;20035;-47
2022/04/11 08:56:29;;;;;;;10.70;6.40;;;9.80;99.90;;;;;;4972751;28;20478;-45
2022/04/11 08:58:55;;;;;;;10.00;6.28;;;9.80;99.90;;;;;;4977202;28;20434;-47
2022/04/11 09:01:21;;;;;;;10.13;6.85;;;9.90;99.90;;;;;;4975138;28;20490;-44
2022/04/11 09:03:48;;;;;;;15.65;6.90;;;10.00;99.90;;;;;;4981253;28;20050;-48
2022/04/11 09:06:15;;;;;;;11.32;6.05;;;10.20;99.90;;;;;;4977671;28;20077;-46
2022/04/11 09:08:46;;;;;;;10.65;7.03;;;10.20;99.90;;;;;;4974325;28;20038;-45
2022/04/11 09:11:12;;;;;;;11.63;6.53;;;10.40;99.90;;;;;;4982410;28;20050;-45
2022/04/11 09:13:50;;;;;;;11.88;6.55;;;10.60;99.90;;;;;;4980756;28;20049;-49
2022/04/11 09:16:16;;;;;;;10.07;6.88;;;10.60;99.90;;;;;;4980410;28;20047;-47
2022/04/11 09:18:59;;;;;;;10.25;6.60;;;10.60;99.90;;;;;;4983254;28;20441;-48
2022/04/11 09:21:25;;;;;;;10.10;6.35;;;10.70;99.90;;;;;;4982275;28;20034;-48
2022/04/11 09:24:15;;;;;;;10.35;5.60;;;10.90;99.90;;;;;;4982294;28;20104;-48
2022/04/11 09:26:40;;;;;;;11.32;6.25;;;11.00;99.90;;;;;;4988185;28;20030;-46
2022/04/11 09:29:07;;;;;;;9.70;6.10;;;11.20;99.90;;;;;;4984487;28;20038;-47
2022/04/11 09:31:33;;;;;;;8.98;6.32;;;11.30;99.90;;;;;;4980330;28;20035;-49
2022/04/11 09:34:13;;;;;;;10.55;6.10;;;11.40;99.90;;;;;;4984641;28;20369;-46
2022/04/11 09:36:52;;;;;;;10.63;5.95;;;11.40;99.90;;;;;;4988614;28;20077;-46
2022/04/11 09:39:22;;;;;;;10.32;5.43;;;11.40;99.90;;;;;;4989464;28;20050;-49
2022/04/11 09:41:49;;;;;;;10.57;6.47;;;11.60;99.90;;;;;;4991199;28;20548;-44
2022/04/11 09:44:34;;;;;;;10.80;6.18;;;11.50;99.90;;;;;;4991710;28;20042;-47
2022/04/11 09:47:06;;;;;;;9.75;6.43;;;11.70;99.90;;;;;;4969923;28;20050;-49
2022/04/11 09:49:33;;;;;;;12.02;6.53;;;11.70;99.90;;;;;;4991309;28;20062;-48
2022/04/11 09:52:04;;;;;;;10.77;6.05;;;11.90;99.90;;;;;;4990528;28;20046;-47
2022/04/11 09:54:31;;;;;;;9.48;5.68;;;11.80;99.90;;;;;;4992013;28;20433;-45
2022/04/11 09:57:01;;;;;;;9.93;6.18;;;12.00;99.90;;;;;;4991185;28;20045;-46
2022/04/11 09:59:27;;;;;;;10.15;5.50;;;12.10;99.90;;;;;;4986673;28;20085;-50
2022/04/11 10:01:54;;;;;;;9.48;6.28;;;12.20;99.90;;;;;;4984588;28;20605;-43
2022/04/11 10:04:21;;;;;;;12.48;6.32;;;12.20;99.90;;;;;;4991597;28;20050;-49
2022/04/11 10:06:47;;;;;;;10.48;6.35;;;12.40;99.90;;;;;;4990112;28;20133;-45
2022/04/11 10:09:13;;;;;;;12.32;6.10;;;12.30;99.90;;;;;;4991360;28;20046;-47
2022/04/11 10:11:44;;;;;;;11.23;6.22;;;12.50;99.90;;;;;;4991117;28;20126;-48
2022/04/11 10:14:11;;;;;;;11.93;6.20;;;12.70;99.90;;;;;;4990513;28;20038;-47
2022/04/11 10:16:42;;;;;;;8.52;5.80;;;12.60;99.90;;;;;;4987295;28;20065;-48
2022/04/11 10:19:09;;;;;;;13.30;6.50;;;12.60;99.90;;;;;;4968048;28;20042;-47
2022/04/11 10:21:42;;;;;;;14.05;6.53;;;12.70;99.90;;;;;;4987867;28;20038;-47
2022/04/11 10:24:18;;;;;;;10.57;6.28;;;12.60;99.90;;;;;;4983213;28;20034;-47
2022/04/11 10:26:46;;;;;;;11.68;6.63;;;12.80;99.80;;;;;;4982710;28;20560;-46
2022/04/11 10:29:34;;;;;;;10.38;6.05;;;12.70;99.90;;;;;;4987270;28;20073;-49
2022/04/11 10:32:14;;;;;;;12.30;6.68;;;12.80;99.90;;;;;;4987611;28;20097;-48
2022/04/11 10:34:47;;;;;;;15.20;6.57;;;12.80;99.80;;;;;;4988009;28;20109;-47
2022/04/11 10:37:13;;;;;;;10.88;5.90;;;12.90;99.80;;;;;;4988048;28;20053;-50
2022/04/11 10:39:44;;;;;;;11.02;6.15;;;12.90;98.40;;;;;;4990920;28;20975;-50
2022/04/11 10:42:12;;;;;;;11.85;6.65;;;12.70;99.90;;;;;;4989226;28;20046;-47
2022/04/11 10:44:40;;;;;;;11.77;6.47;;;12.80;97.60;;;;;;4986593;28;20046;-47
2022/04/11 10:47:11;;;;;;;9.93;6.38;;;12.80;99.90;;;;;;4988328;28;20069;-47
2022/04/11 10:49:53;;;;;;;11.88;6.07;;;13.00;99.90;;;;;;4971737;28;20193;-49
2022/04/11 10:52:28;;;;;;;11.57;6.55;;;13.00;99.20;;;;;;4999690;28;20161;-49
2022/04/11 10:54:56;;;;;;;9.68;6.05;;;13.40;98.60;;;;;;4980899;28;20077;-49
2022/04/11 10:57:34;;;;;;;13.20;6.50;;;13.60;96.40;;;;;;5008765;28;20048;-46
2022/04/11 11:00:13;;;;;;;11.18;6.72;;;13.70;97.60;;;;;;5007939;28;20053;-49
2022/04/11 11:02:59;;;;;;;11.52;6.70;;;13.50;94.00;;;;;;5007103;28;20044;-50
2022/04/11 11:05:28;;;;;;;9.90;6.28;;;13.60;97.00;;;;;;5005352;28;20045;-49
2022/04/11 11:08:09;;;;;;;12.90;6.80;;;13.90;95.20;;;;;;5005229;28;20089;-49
2022/04/11 11:10:55;;;;;;;12.32;6.60;;;13.60;95.00;;;;;;5005084;28;20050;-48
2022/04/11 11:13:39;;;;;;;9.55;6.13;;;13.70;93.90;;;;;;5005539;28;20042;-46
2022/04/11 11:16:07;;;;;;;13.77;6.85;;;14.00;95.80;;;;;;5007311;28;20061;-46
2022/04/11 11:18:46;;;;;;;9.98;7.05;;;14.10;97.10;;;;;;5007726;28;20038;-48
2022/04/11 11:21:12;;;;;;;10.13;7.03;;;14.30;91.00;;;;;;5007789;28;20213;-47
2022/04/11 11:23:38;;;;;;;9.88;6.57;;;14.40;93.10;;;;;;5008981;28;20114;-45
2022/04/11 11:26:12;;;;;;;9.38;6.93;;;14.40;92.00;;;;;;5008818;28;20037;-51
2022/04/11 11:28:41;;;;;;;;;;;14.60;93.70;;;;;;4998998;28;20038;-47
2022/04/11 11:31:07;;;;;;;12.35;7.18;;;14.60;92.60;;;;;;5008147;28;19929;-48
2022/04/11 11:33:33;;;;;;;9.82;6.80;;;14.80;94.70;;;;;;5009734;28;20040;-49
2022/04/11 11:36:01;;;;;;;12.98;7.78;;;14.90;89.60;;;;;;5007030;28;20119;-50
2022/04/11 11:38:31;;;;;;;10.57;7.07;;;14.90;92.70;;;;;;5008807;28;20042;-46
2022/04/11 11:41:03;;;;;;;9.75;7.05;;;15.00;91.20;;;;;;5009777;28;20025;-46
2022/04/11 11:43:30;;;;;;;12.48;6.85;;;14.90;90.30;;;;;;5010345;28;20421;-44
2022/04/11 11:46:01;;;;;;;10.68;7.25;;;14.80;90.70;;;;;;5010182;28;20052;-47
2022/04/11 11:48:31;;;;;;;12.88;6.45;;;15.00;93.30;;;;;;5009858;28;20037;-47
2022/04/11 11:51:01;;;;;;;11.15;7.13;;;15.10;91.90;;;;;;4991734;28;20141;-46
2022/04/11 11:53:41;;;;;;;11.77;7.70;;;15.20;93.70;;;;;;4990728;28;20442;-48
2022/04/11 11:56:09;;;;;;;12.25;7.30;;;15.50;93.80;;;;;;4989736;28;20031;-50
2022/04/11 11:58:39;;;;;;;12.50;6.95;;;15.60;91.10;;;;;;4990538;28;20125;-49
2022/04/11 12:01:09;;;;;;;10.05;7.40;;;15.50;87.70;;;;;;4990690;28;20045;-51
2022/04/11 12:06:23;;;;;;;;;;;15.30;91.50;;;;;;4991177;28;20052;-48
2022/04/11 12:09:03;;;;;;;12.82;7.15;;;15.80;93.70;;;;;;4990980;28;20451;-46
2022/04/11 12:11:30;;;;;;;11.73;7.93;;;15.70;88.60;;;;;;4990456;28;20073;-47
2022/04/11 12:14:03;;;;;;;11.32;7.32;;;15.70;93.30;;;;;;4990284;28;20042;-47
2022/04/11 12:16:30;;;;;;;11.40;7.57;;;15.90;91.30;;;;;;4990297;28;20085;-48
2022/04/11 12:18:57;;;;;;;11.32;7.60;;;16.20;90.60;;;;;;4972533;28;20046;-46
2022/04/11 12:21:34;;;;;;;10.88;7.43;;;16.10;79.60;;;;;;4990479;28;20377;-45
2022/04/11 12:24:05;;;;;;;13.95;8.75;;;16.20;73.10;;;;;;4990252;28;20556;-45
2022/04/11 12:26:51;;;;;;;10.95;7.57;;;16.30;78.30;;;;;;4990672;28;20523;-52
2022/04/11 12:29:18;;;;;;;11.32;7.28;;;16.30;80.50;;;;;;4973024;28;20073;-47
2022/04/11 12:31:58;;;;;;;13.02;7.90;;;16.40;73.90;;;;;;4990319;28;20505;-49
2022/04/11 12:34:39;;;;;;;12.18;7.22;;;16.60;79.70;;;;;;4990574;28;20354;-49
2022/04/11 12:37:07;;;;;;;12.73;7.85;;;16.80;80.10;;;;;;4990372;28;20041;-47
2022/04/11 12:39:49;;;;;;;11.68;7.75;;;16.60;70.20;;;;;;4990051;28;20426;-48
2022/04/11 12:42:20;;;;;;;12.98;7.63;;;16.50;69.60;;;;;;4990397;28;20045;-49
2022/04/11 12:44:46;;;;;;;12.60;7.70;;;16.80;78.30;;;;;;4992922;28;20505;-50
2022/04/11 12:47:12;;;;;;;10.32;7.53;;;16.80;75.20;;;;;;4992781;28;20050;-48
2022/04/11 12:49:50;;;;;;;10.93;7.50;;;16.80;73.90;;;;;;4999018;28;20054;-47
2022/04/11 12:52:24;;;;;;;10.63;7.00;;;16.70;71.50;;;;;;5012061;28;20049;-48
2022/04/11 12:55:03;;;;;;;12.85;8.35;;;16.90;74.50;;;;;;5012738;28;20108;-46
2022/04/11 12:57:32;;;;;;;11.23;8.30;;;16.70;66.20;;;;;;5012918;28;20061;-46